Terminal Aerodrome Forecast
Issued by NWS

Current Version | Previous Version | Text Only | Print | Product List | Glossary On
Versions: 1 2 3 4 5 6 7 8 9 10 11 12 13 14 15 16 17 18 19 20 21 22 23 24 25 26
000
FTUS43 KIND 220800 AAA
TAFBMG
TAF AMD
KBMG 220828Z 2208/2306 22006KT P6SM SCT100 BKN250
      TEMPO 2210/2213 5SM BR
     FM222000 24007KT P6SM FEW035 BKN080
     FM230000 VRB02KT P6SM SCT080
      AMD LTD TO CLD VIS AND WIND TIL 221300=

USA.gov is the U.S. government's official web portal to all federal, state and local government web resources and services.